Time;durP1;ratioP1;P1;durP2;ratioP2;P2;SDS_P1;SDS_P2;PMS_P1;PMS_P2;Temp;Humidity;BMP_temperature;BMP_pressure;BME280_temperature;BME280_humidity;BME280_pressure;Samples;Min_cycle;Max_cycle;Signal;HPM_P1;HPM_P2
2024/01/12 00:01:29;;;;;;;42.55;23.77;;;;;;;;;;4992689;28;20514;-77
2024/01/12 00:03:56;;;;;;;42.10;23.45;;;;;;;;;;4991712;28;20478;-77
2024/01/12 00:06:25;;;;;;;41.42;23.50;;;;;;;;;;4992863;28;20476;-77
2024/01/12 00:08:52;;;;;;;38.33;21.33;;;;;;;;;;4992145;28;20045;-77
2024/01/12 00:11:18;;;;;;;66.97;27.10;;;;;;;;;;4994668;28;20037;-77
2024/01/12 00:13:46;;;;;;;52.38;26.55;;;;;;;;;;4993826;28;20093;-77
2024/01/12 00:16:19;;;;;;;44.55;25.67;;;;;;;;;;4995036;28;20472;-76
2024/01/12 00:18:51;;;;;;;58.30;29.65;;;;;;;;;;4977543;28;20026;-77
2024/01/12 00:21:19;;;;;;;47.55;26.13;;;;;;;;;;4993811;28;20041;-76
2024/01/12 00:30:50;;;;;;;39.28;22.08;;;;;;;;;;4938823;29;20046;-76
2024/01/12 00:37:58;;;;;;;46.55;22.58;;;;;;;;;;4910133;29;20090;-76
2024/01/12 00:44:54;;;;;;;42.38;22.20;;;;;;;;;;4831451;29;20132;-75
2024/01/12 00:47:21;;;;;;;40.83;21.45;;;;;;;;;;4876998;28;20091;-75
2024/01/12 00:50:09;;;;;;;39.38;23.05;;;;;;;;;;4993244;28;20042;-75
2024/01/12 00:52:59;;;;;;;40.42;21.20;;;;;;;;;;4994763;28;20077;-75
2024/01/12 01:06:09;;;;;;;;;;;;;;;;;;4964095;28;20046;-76
2024/01/12 01:08:48;;;;;;;33.50;17.60;;;;;;;;;;4994431;28;19960;-76
2024/01/12 01:11:18;;;;;;;41.08;18.98;;;;;;;;;;4979910;28;20042;-76
2024/01/12 01:13:50;;;;;;;32.45;18.40;;;;;;;;;;4993469;28;20460;-76
2024/01/12 01:16:17;;;;;;;33.70;19.75;;;;;;;;;;5000636;28;20260;-76
2024/01/12 01:19:04;;;;;;;38.97;20.65;;;;;;;;;;4994159;28;20033;-75
2024/01/12 01:21:33;;;;;;;37.17;21.20;;;;;;;;;;4994251;28;20045;-75
2024/01/12 01:24:04;;;;;;;36.35;20.48;;;;;;;;;;4994097;28;20038;-76
2024/01/12 01:26:41;;;;;;;34.03;19.48;;;;;;;;;;4994084;28;20121;-76
2024/01/12 01:29:08;;;;;;;36.17;19.25;;;;;;;;;;4992640;28;20049;-76
2024/01/12 01:31:37;;;;;;;33.72;17.77;;;;;;;;;;4984751;28;20515;-76
2024/01/12 01:34:09;;;;;;;37.30;18.90;;;;;;;;;;5010577;28;20045;-76
2024/01/12 01:36:38;;;;;;;35.72;20.20;;;;;;;;;;5004011;28;20041;-76
2024/01/12 01:39:08;;;;;;;36.80;20.73;;;;;;;;;;5006409;28;20034;-76
2024/01/12 01:41:43;;;;;;;33.58;19.00;;;;;;;;;;4982918;28;20030;-76
2024/01/12 01:44:20;;;;;;;42.15;20.67;;;;;;;;;;4994058;28;20034;-76
2024/01/12 01:46:47;;;;;;;39.70;21.67;;;;;;;;;;4993984;28;20058;-76
2024/01/12 01:49:14;;;;;;;42.85;21.55;;;;;;;;;;4976435;28;20026;-76
2024/01/12 01:51:49;;;;;;;45.95;21.95;;;;;;;;;;4992401;28;20512;-76
2024/01/12 01:54:51;;;;;;;62.95;26.48;;;;;;;;;;4976033;28;20042;-76
2024/01/12 01:57:22;;;;;;;38.80;20.90;;;;;;;;;;4990352;28;20065;-76
2024/01/12 01:59:48;;;;;;;37.80;20.30;;;;;;;;;;4993791;28;20026;-76
2024/01/12 02:02:18;;;;;;;36.45;20.73;;;;;;;;;;4993501;28;20033;-76
2024/01/12 02:04:57;;;;;;;43.75;21.05;;;;;;;;;;4993687;28;20034;-76
2024/01/12 02:07:29;;;;;;;42.97;22.15;;;;;;;;;;4985822;28;20038;-76
2024/01/12 02:09:58;;;;;;;45.95;22.75;;;;;;;;;;4993400;28;20117;-76
2024/01/12 02:12:25;;;;;;;39.15;21.77;;;;;;;;;;4993497;28;20038;-76
2024/01/12 02:15:13;;;;;;;;;;;;;;;;;;;;;
2024/01/12 02:18:42;;;;;;;37.50;20.67;;;;;;;;;;4989928;28;20048;-76
2024/01/12 02:21:40;;;;;;;34.22;19.10;;;;;;;;;;4984624;28;20501;-76
2024/01/12 02:24:08;;;;;;;52.40;20.95;;;;;;;;;;4976985;28;20414;-76
2024/01/12 02:26:35;;;;;;;37.47;20.88;;;;;;;;;;4958731;28;20448;-76
2024/01/12 02:29:04;;;;;;;41.63;20.58;;;;;;;;;;4993066;28;20116;-76
2024/01/12 02:31:33;;;;;;;37.92;20.70;;;;;;;;;;4993046;28;20109;-76
2024/01/12 02:33:59;;;;;;;40.72;19.75;;;;;;;;;;5007965;28;20387;-76
2024/01/12 02:36:45;;;;;;;40.42;20.15;;;;;;;;;;4987844;28;20355;-76
2024/01/12 02:39:14;;;;;;;36.83;19.15;;;;;;;;;;4975539;28;20483;-75
2024/01/12 02:41:57;;;;;;;32.83;18.33;;;;;;;;;;4993123;28;20391;-76
2024/01/12 02:44:53;;;;;;;34.33;18.48;;;;;;;;;;4983984;28;20403;-76
2024/01/12 02:47:23;;;;;;;30.75;17.77;;;;;;;;;;4992738;28;20038;-76
2024/01/12 02:49:55;;;;;;;33.35;16.70;;;;;;;;;;4992853;28;20592;-76
2024/01/12 02:52:27;;;;;;;30.10;16.45;;;;;;;;;;5006944;28;20495;-76
2024/01/12 02:58:55;;;;;;;31.02;17.50;;;;;;;;;;4951579;29;20166;-76
2024/01/12 03:01:25;;;;;;;33.25;18.75;;;;;;;;;;4951596;28;20133;-75
2024/01/12 03:04:18;;;;;;;37.55;21.73;;;;;;;;;;4971009;28;20046;-76
2024/01/12 03:06:49;;;;;;;42.05;22.88;;;;;;;;;;4992567;28;20030;-76
2024/01/12 03:09:42;;;;;;;44.90;22.90;;;;;;;;;;4984644;28;20412;-75
2024/01/12 03:12:09;;;;;;;39.08;22.33;;;;;;;;;;4975093;28;20041;-76
2024/01/12 03:14:38;;;;;;;38.00;21.90;;;;;;;;;;4992299;28;20081;-76
2024/01/12 03:17:21;;;;;;;40.72;22.40;;;;;;;;;;4992349;28;20049;-75
2024/01/12 03:19:56;;;;;;;42.20;21.33;;;;;;;;;;4990727;28;20042;-75
2024/01/12 03:22:23;;;;;;;35.25;19.98;;;;;;;;;;4992353;28;20039;-75
2024/01/12 03:24:51;;;;;;;32.05;16.75;;;;;;;;;;4975145;28;20025;-75
2024/01/12 03:27:21;;;;;;;35.55;19.13;;;;;;;;;;4974757;28;20031;-76
2024/01/12 03:29:52;;;;;;;32.60;17.92;;;;;;;;;;5008702;28;20038;-75
2024/01/12 03:32:30;;;;;;;34.42;17.75;;;;;;;;;;4978991;28;20034;-76
2024/01/12 03:35:08;;;;;;;38.63;16.50;;;;;;;;;;5010643;28;20070;-76
2024/01/12 03:38:08;;;;;;;37.83;16.52;;;;;;;;;;5011731;28;20033;-76
2024/01/12 03:44:51;;;;;;;43.45;17.45;;;;;;;;;;4899726;29;20136;-76
2024/01/12 03:47:27;;;;;;;34.80;16.95;;;;;;;;;;4882343;29;20119;-75
2024/01/12 03:54:22;;;;;;;45.55;19.77;;;;;;;;;;4798639;29;20524;-76
2024/01/12 03:57:03;;;;;;;43.77;20.47;;;;;;;;;;4811374;29;20054;-76
2024/01/12 03:59:38;;;;;;;45.45;20.88;;;;;;;;;;4872484;29;20069;-76
2024/01/12 04:02:05;;;;;;;36.92;19.70;;;;;;;;;;4981993;28;20046;-76
2024/01/12 04:04:32;;;;;;;34.88;19.77;;;;;;;;;;4995547;28;20030;-76
2024/01/12 04:07:03;;;;;;;38.78;20.50;;;;;;;;;;4995408;28;20125;-75
2024/01/12 04:09:30;;;;;;;44.83;22.48;;;;;;;;;;4995767;28;20034;-76
2024/01/12 04:11:56;;;;;;;44.90;21.20;;;;;;;;;;4995812;28;20175;-75
2024/01/12 04:14:25;;;;;;;40.63;20.55;;;;;;;;;;4994953;28;20038;-75
2024/01/12 04:16:52;;;;;;;35.22;18.65;;;;;;;;;;4961385;28;20069;-76
2024/01/12 04:19:18;;;;;;;35.90;18.70;;;;;;;;;;4995295;28;20031;-75
2024/01/12 04:21:45;;;;;;;34.20;19.30;;;;;;;;;;4978321;28;20109;-75
2024/01/12 04:24:12;;;;;;;37.17;19.40;;;;;;;;;;4977713;28;20094;-75
2024/01/12 04:26:42;;;;;;;39.03;20.10;;;;;;;;;;4994367;28;20033;-76
2024/01/12 04:29:12;;;;;;;51.40;21.95;;;;;;;;;;4978570;28;20042;-75
2024/01/12 04:31:43;;;;;;;41.35;18.98;;;;;;;;;;5010524;28;20088;-75
2024/01/12 04:34:12;;;;;;;45.20;19.52;;;;;;;;;;4977654;28;20034;-75
2024/01/12 04:36:39;;;;;;;40.88;19.80;;;;;;;;;;5009646;28;20037;-75
2024/01/12 04:39:12;;;;;;;35.63;17.20;;;;;;;;;;4994971;28;20041;-75
2024/01/12 04:41:50;;;;;;;45.65;20.58;;;;;;;;;;4994590;28;20085;-76
2024/01/12 04:44:18;;;;;;;32.17;17.52;;;;;;;;;;4993125;28;20034;-76
2024/01/12 04:46:44;;;;;;;42.85;20.33;;;;;;;;;;4977508;28;20065;-76
2024/01/12 04:49:10;;;;;;;42.63;20.20;;;;;;;;;;4976998;28;20081;-75
2024/01/12 04:51:38;;;;;;;46.13;21.52;;;;;;;;;;5009592;28;20026;-75
2024/01/12 04:54:04;;;;;;;42.13;19.45;;;;;;;;;;4977309;28;20510;-76
2024/01/12 04:56:30;;;;;;;36.90;16.98;;;;;;;;;;4994406;28;20610;-76
2024/01/12 04:58:57;;;;;;;48.25;20.23;;;;;;;;;;4995102;28;20042;-76
2024/01/12 05:01:26;;;;;;;37.90;19.40;;;;;;;;;;4994247;28;20030;-77
2024/01/12 05:03:53;;;;;;;34.80;17.27;;;;;;;;;;4960121;28;20027;-75
2024/01/12 05:06:19;;;;;;;31.77;17.00;;;;;;;;;;4994411;28;20499;-76
2024/01/12 05:08:46;;;;;;;31.85;16.35;;;;;;;;;;4977006;28;20655;-77
2024/01/12 05:11:14;;;;;;;29.65;16.30;;;;;;;;;;4994465;28;20399;-77
2024/01/12 05:13:40;;;;;;;32.75;15.45;;;;;;;;;;4994280;28;20502;-77
2024/01/12 05:16:06;;;;;;;30.48;16.35;;;;;;;;;;4976357;28;20043;-76
2024/01/12 05:18:32;;;;;;;34.88;17.60;;;;;;;;;;4992170;28;20387;-77
2024/01/12 05:20:59;;;;;;;28.98;16.00;;;;;;;;;;4976590;28;20026;-76
2024/01/12 05:23:25;;;;;;;29.33;17.10;;;;;;;;;;4976937;28;20129;-76
2024/01/12 05:25:51;;;;;;;33.63;17.30;;;;;;;;;;4993886;28;20487;-75
2024/01/12 05:28:18;;;;;;;30.27;16.52;;;;;;;;;;4993991;28;20479;-77
2024/01/12 05:30:45;;;;;;;35.17;18.15;;;;;;;;;;4960743;28;20832;-77
2024/01/12 05:33:12;;;;;;;36.10;18.17;;;;;;;;;;4960702;28;20403;-76
2024/01/12 05:35:39;;;;;;;33.22;17.08;;;;;;;;;;4960111;28;20038;-75
2024/01/12 05:38:05;;;;;;;36.70;17.38;;;;;;;;;;4976490;28;20034;-75
2024/01/12 05:40:31;;;;;;;36.05;19.17;;;;;;;;;;4959725;28;20454;-75
2024/01/12 05:42:57;;;;;;;30.80;16.27;;;;;;;;;;4959753;28;20419;-76
2024/01/12 05:45:24;;;;;;;40.67;18.40;;;;;;;;;;4992805;28;20080;-75
2024/01/12 05:47:50;;;;;;;34.00;16.40;;;;;;;;;;4991898;28;20034;-75
2024/01/12 05:50:16;;;;;;;33.10;16.95;;;;;;;;;;4993302;28;20041;-75
2024/01/12 05:52:43;;;;;;;30.08;16.73;;;;;;;;;;4992521;28;20053;-75
2024/01/12 05:55:09;;;;;;;32.30;18.00;;;;;;;;;;4960180;28;20038;-75
2024/01/12 05:57:35;;;;;;;48.78;18.25;;;;;;;;;;4993819;28;20018;-76
2024/01/12 06:00:04;;;;;;;43.72;19.83;;;;;;;;;;4993388;28;20091;-75
2024/01/12 06:02:32;;;;;;;45.13;19.33;;;;;;;;;;4993494;28;20038;-77
2024/01/12 06:04:58;;;;;;;50.30;20.35;;;;;;;;;;4993775;28;20034;-77
2024/01/12 06:07:26;;;;;;;34.08;16.08;;;;;;;;;;4993544;28;20031;-77
2024/01/12 06:09:53;;;;;;;26.30;15.00;;;;;;;;;;4993046;28;20042;-76
2024/01/12 06:12:20;;;;;;;60.53;19.73;;;;;;;;;;4975778;28;20145;-76
2024/01/12 06:14:47;;;;;;;41.33;20.70;;;;;;;;;;4975708;28;20045;-76
2024/01/12 06:17:13;;;;;;;38.05;17.40;;;;;;;;;;4993011;28;20027;-76
2024/01/12 06:19:39;;;;;;;45.25;17.52;;;;;;;;;;4992966;28;20081;-76
2024/01/12 06:22:13;;;;;;;43.22;17.40;;;;;;;;;;4992355;28;20034;-75
2024/01/12 06:24:39;;;;;;;46.72;20.02;;;;;;;;;;4976048;28;20050;-76
2024/01/12 06:27:05;;;;;;;56.20;19.27;;;;;;;;;;4992910;28;20029;-76
2024/01/12 06:29:31;;;;;;;35.80;17.90;;;;;;;;;;4992288;28;20057;-75
2024/01/12 06:31:58;;;;;;;45.78;19.48;;;;;;;;;;4992991;28;20034;-76
2024/01/12 06:34:27;;;;;;;49.67;19.25;;;;;;;;;;4990929;28;20476;-76
2024/01/12 06:36:57;;;;;;;48.00;17.98;;;;;;;;;;4992018;28;20034;-76
2024/01/12 06:39:25;;;;;;;38.80;16.80;;;;;;;;;;4975595;28;20039;-75
2024/01/12 06:41:52;;;;;;;38.85;18.05;;;;;;;;;;4992283;28;20555;-79
2024/01/12 06:44:19;;;;;;;31.65;15.35;;;;;;;;;;4956335;28;20552;-80
2024/01/12 06:46:47;;;;;;;54.53;18.30;;;;;;;;;;4975626;28;20049;-81
2024/01/12 06:49:13;;;;;;;37.95;16.63;;;;;;;;;;4950166;28;20132;-79
2024/01/12 06:51:40;;;;;;;32.88;15.48;;;;;;;;;;4993153;28;20507;-79
2024/01/12 06:54:07;;;;;;;28.75;15.00;;;;;;;;;;4958729;28;20380;-78
2024/01/12 06:56:37;;;;;;;42.20;15.15;;;;;;;;;;4974029;28;20109;-78
2024/01/12 06:59:09;;;;;;;24.67;13.38;;;;;;;;;;4991777;28;20054;-77
2024/01/12 07:01:35;;;;;;;27.92;15.15;;;;;;;;;;4991935;28;20104;-77
2024/01/12 07:04:08;;;;;;;30.05;14.23;;;;;;;;;;4990365;28;20053;-78
2024/01/12 07:06:39;;;;;;;26.55;14.57;;;;;;;;;;4991474;28;20045;-78
2024/01/12 07:09:06;;;;;;;24.45;13.48;;;;;;;;;;4992060;28;20125;-77
2024/01/12 07:11:36;;;;;;;23.95;12.48;;;;;;;;;;4992009;28;20037;-78
2024/01/12 07:14:02;;;;;;;25.40;13.70;;;;;;;;;;4990061;28;20068;-78
2024/01/12 07:16:31;;;;;;;23.13;12.07;;;;;;;;;;4991799;28;20056;-78
2024/01/12 07:18:57;;;;;;;22.50;13.32;;;;;;;;;;4991390;28;20080;-78
2024/01/12 07:21:24;;;;;;;20.90;11.73;;;;;;;;;;4973989;28;20042;-79
2024/01/12 07:23:54;;;;;;;22.85;13.80;;;;;;;;;;4991530;28;20073;-79
2024/01/12 07:26:23;;;;;;;27.90;14.32;;;;;;;;;;4990445;28;20042;-79
2024/01/12 07:28:49;;;;;;;27.83;14.38;;;;;;;;;;4958087;28;20023;-78
2024/01/12 07:31:15;;;;;;;26.52;15.95;;;;;;;;;;4991348;28;20097;-78
2024/01/12 07:33:42;;;;;;;22.83;14.63;;;;;;;;;;4990730;28;20042;-78
2024/01/12 07:36:08;;;;;;;29.95;15.23;;;;;;;;;;4990549;28;20049;-78
2024/01/12 07:38:39;;;;;;;27.95;16.67;;;;;;;;;;4974402;28;20034;-78
2024/01/12 07:41:08;;;;;;;31.20;16.58;;;;;;;;;;4973748;28;20046;-77
2024/01/12 07:43:55;;;;;;;42.13;20.00;;;;;;;;;;4991047;28;20029;-80
2024/01/12 07:46:23;;;;;;;31.90;17.08;;;;;;;;;;4988684;28;20031;-80
2024/01/12 07:48:55;;;;;;;32.15;17.38;;;;;;;;;;4974087;28;20022;-80
2024/01/12 07:51:24;;;;;;;31.90;17.48;;;;;;;;;;4991402;28;20026;-80
2024/01/12 07:53:59;;;;;;;32.53;17.17;;;;;;;;;;5006113;28;20034;-82
2024/01/12 07:56:25;;;;;;;32.05;18.00;;;;;;;;;;4991888;28;20033;-80
2024/01/12 07:58:51;;;;;;;31.67;17.80;;;;;;;;;;4992974;28;20019;-80
2024/01/12 08:01:23;;;;;;;31.10;17.63;;;;;;;;;;4991626;28;20030;-80
2024/01/12 08:03:50;;;;;;;35.88;18.48;;;;;;;;;;4988519;28;20345;-80
2024/01/12 08:06:24;;;;;;;34.85;19.83;;;;;;;;;;4973193;28;20038;-80
2024/01/12 08:08:51;;;;;;;38.70;19.80;;;;;;;;;;4990552;28;20523;-79
2024/01/12 08:11:18;;;;;;;35.22;18.75;;;;;;;;;;4990222;28;20507;-80
2024/01/12 08:13:45;;;;;;;31.35;18.13;;;;;;;;;;4974219;28;20026;-82
2024/01/12 08:16:11;;;;;;;27.90;16.08;;;;;;;;;;4958369;28;20135;-80
2024/01/12 08:18:39;;;;;;;32.17;18.02;;;;;;;;;;4992868;28;20161;-81
2024/01/12 08:21:13;;;;;;;41.97;20.52;;;;;;;;;;4994451;28;20510;-81
2024/01/12 08:23:42;;;;;;;35.05;18.05;;;;;;;;;;4961576;28;20045;-78
2024/01/12 08:26:08;;;;;;;38.03;18.75;;;;;;;;;;4994492;28;20039;-80
2024/01/12 08:28:34;;;;;;;33.20;18.58;;;;;;;;;;4994334;28;20022;-79
2024/01/12 08:31:03;;;;;;;35.55;17.98;;;;;;;;;;4976604;28;20437;-80
2024/01/12 08:33:30;;;;;;;31.20;17.33;;;;;;;;;;4973922;28;20046;-80
2024/01/12 08:35:58;;;;;;;28.35;16.50;;;;;;;;;;4993886;28;20022;-79
2024/01/12 08:38:25;;;;;;;26.83;14.65;;;;;;;;;;4976658;28;20031;-78
2024/01/12 08:40:55;;;;;;;29.08;13.43;;;;;;;;;;4993847;28;20038;-80
2024/01/12 08:43:24;;;;;;;38.58;14.88;;;;;;;;;;4994330;28;20057;-82
2024/01/12 08:45:52;;;;;;;40.38;16.77;;;;;;;;;;4993076;28;20030;-80
2024/01/12 08:48:20;;;;;;;38.92;16.05;;;;;;;;;;4993332;28;20026;-82
2024/01/12 08:51:14;;;;;;;34.13;15.13;;;;;;;;;;4993601;28;20027;-81
2024/01/12 08:53:42;;;;;;;27.83;14.43;;;;;;;;;;5000815;28;20053;-81
2024/01/12 08:56:11;;;;;;;23.85;13.88;;;;;;;;;;4993465;28;20089;-81
2024/01/12 08:58:55;;;;;;;23.30;12.68;;;;;;;;;;4993882;28;20077;-82
2024/01/12 09:01:33;;;;;;;27.55;14.05;;;;;;;;;;4976775;28;20150;-79
2024/01/12 09:04:07;;;;;;;30.73;14.18;;;;;;;;;;4959010;28;20088;-79
2024/01/12 09:09:53;;;;;;;21.40;12.38;;;;;;;;;;4992788;28;20034;-80
2024/01/12 09:12:55;;;;;;;41.95;14.73;;;;;;;;;;4992812;28;20068;-80
2024/01/12 09:15:32;;;;;;;29.67;16.23;;;;;;;;;;4988148;28;20061;-77
2024/01/12 09:18:04;;;;;;;32.00;14.50;;;;;;;;;;4993471;28;20030;-82
2024/01/12 09:20:33;;;;;;;24.83;13.07;;;;;;;;;;4975384;28;20038;-82
2024/01/12 09:23:54;;;;;;;;;;;;;;;;;;;;;
2024/01/12 09:26:44;;;;;;;25.25;13.45;;;;;;;;;;4913000;29;20096;-81
2024/01/12 09:29:11;;;;;;;24.52;12.85;;;;;;;;;;4901265;28;20047;-80
2024/01/12 09:31:47;;;;;;;20.55;11.32;;;;;;;;;;4990838;28;20034;-81
2024/01/12 09:34:13;;;;;;;24.45;12.25;;;;;;;;;;4974564;28;20026;-80
2024/01/12 09:36:40;;;;;;;23.05;13.27;;;;;;;;;;4957262;28;20066;-80
2024/01/12 09:39:07;;;;;;;21.10;10.55;;;;;;;;;;4975084;28;20045;-80
2024/01/12 09:42:59;;;;;;;;;;;;;;;;;;;;;
2024/01/12 09:45:35;;;;;;;19.75;11.05;;;;;;;;;;4975074;28;20049;-80
2024/01/12 09:48:26;;;;;;;21.20;12.40;;;;;;;;;;4977255;28;20065;-82
2024/01/12 09:50:55;;;;;;;32.92;14.35;;;;;;;;;;4976715;28;20026;-82
2024/01/12 09:53:25;;;;;;;20.60;11.77;;;;;;;;;;4991296;28;20030;-80
2024/01/12 09:55:57;;;;;;;20.88;11.60;;;;;;;;;;4992589;28;20034;-82
2024/01/12 09:58:28;;;;;;;21.98;12.90;;;;;;;;;;5001634;28;20034;-81
2024/01/12 10:00:56;;;;;;;19.23;10.48;;;;;;;;;;4991278;28;20042;-80
2024/01/12 10:03:24;;;;;;;22.25;11.68;;;;;;;;;;4992436;28;20448;-79
2024/01/12 10:05:50;;;;;;;21.27;12.13;;;;;;;;;;4992407;28;20040;-80
2024/01/12 10:08:18;;;;;;;27.77;12.73;;;;;;;;;;4990849;28;20507;-79
2024/01/12 10:10:43;;;;;;;25.77;11.10;;;;;;;;;;4991961;28;20027;-80
2024/01/12 10:13:09;;;;;;;22.80;11.27;;;;;;;;;;4954131;28;20121;-81
2024/01/12 10:15:40;;;;;;;24.08;13.98;;;;;;;;;;4986817;28;20101;-79
2024/01/12 10:18:06;;;;;;;19.88;11.50;;;;;;;;;;4971658;28;20049;-80
2024/01/12 10:20:38;;;;;;;21.75;11.18;;;;;;;;;;5002913;28;20038;-79
2024/01/12 10:23:08;;;;;;;24.08;12.35;;;;;;;;;;4993008;28;20042;-80
2024/01/12 10:25:35;;;;;;;20.75;11.20;;;;;;;;;;4974438;28;20030;-80
2024/01/12 10:28:01;;;;;;;21.08;10.27;;;;;;;;;;4992720;28;20080;-80
2024/01/12 10:30:30;;;;;;;17.00;9.77;;;;;;;;;;4993606;28;20038;-80
2024/01/12 10:32:56;;;;;;;18.77;10.05;;;;;;;;;;4973923;28;20070;-80
2024/01/12 10:35:22;;;;;;;17.92;10.43;;;;;;;;;;4988595;28;20034;-80
2024/01/12 10:37:55;;;;;;;17.95;10.50;;;;;;;;;;4972905;28;20104;-80
2024/01/12 10:40:25;;;;;;;19.75;11.52;;;;;;;;;;4990775;28;20043;-79
2024/01/12 10:42:56;;;;;;;20.15;11.57;;;;;;;;;;4989789;28;20031;-81
2024/01/12 10:45:25;;;;;;;22.60;11.05;;;;;;;;;;4986581;28;20046;-82
2024/01/12 10:48:06;;;;;;;21.70;12.60;;;;;;;;;;4990385;28;20038;-82
2024/01/12 10:50:36;;;;;;;20.75;11.13;;;;;;;;;;4975737;28;20133;-81
2024/01/12 10:53:28;;;;;;;16.75;9.85;;;;;;;;;;4992617;28;20121;-81
2024/01/12 10:55:58;;;;;;;33.92;13.13;;;;;;;;;;4981753;28;20125;-79
2024/01/12 10:58:41;;;;;;;21.00;11.95;;;;;;;;;;4955131;28;20046;-80
2024/01/12 11:01:07;;;;;;;22.02;11.18;;;;;;;;;;4939769;28;20598;-78
2024/01/12 11:03:35;;;;;;;22.00;10.80;;;;;;;;;;4955555;28;20232;-79
2024/01/12 11:06:21;;;;;;;22.13;12.32;;;;;;;;;;4973027;28;20045;-78
2024/01/12 11:08:50;;;;;;;17.38;10.80;;;;;;;;;;4956147;28;20047;-80
2024/01/12 11:11:21;;;;;;;16.65;9.80;;;;;;;;;;4956392;28;20094;-79
2024/01/12 11:13:50;;;;;;;19.98;10.98;;;;;;;;;;4972884;28;20037;-80
2024/01/12 11:16:17;;;;;;;17.85;10.40;;;;;;;;;;4955227;28;20132;-80
2024/01/12 11:18:45;;;;;;;24.38;10.73;;;;;;;;;;4972651;28;20031;-80
2024/01/12 11:21:11;;;;;;;19.52;9.85;;;;;;;;;;4955231;28;20118;-80
2024/01/12 11:23:47;;;;;;;18.40;10.10;;;;;;;;;;4954623;28;20363;-80
2024/01/12 11:26:16;;;;;;;24.88;10.65;;;;;;;;;;4954942;28;20041;-81
2024/01/12 11:28:43;;;;;;;16.58;10.07;;;;;;;;;;4972464;28;20037;-80
2024/01/12 11:31:09;;;;;;;19.50;11.45;;;;;;;;;;4971330;28;20050;-80
2024/01/12 11:33:43;;;;;;;17.23;10.27;;;;;;;;;;4954402;28;20038;-81
2024/01/12 11:36:14;;;;;;;24.00;15.90;;;;;;;;;;4972135;28;20058;-80
2024/01/12 11:38:41;;;;;;;19.33;9.77;;;;;;;;;;4964070;28;20487;-80
2024/01/12 11:41:13;;;;;;;20.63;10.95;;;;;;;;;;4990482;28;20121;-82
2024/01/12 11:43:49;;;;;;;20.30;11.23;;;;;;;;;;4974861;28;20051;-81
2024/01/12 11:46:15;;;;;;;23.75;11.52;;;;;;;;;;4991094;28;20041;-80
2024/01/12 11:48:44;;;;;;;17.50;9.52;;;;;;;;;;4990397;28;20038;-80
2024/01/12 11:51:27;;;;;;;14.15;8.75;;;;;;;;;;4969152;28;20014;-80
2024/01/12 11:53:57;;;;;;;19.55;8.57;;;;;;;;;;4978782;28;20062;-81
2024/01/12 11:56:29;;;;;;;13.35;7.80;;;;;;;;;;4994000;28;20054;-81
2024/01/12 11:58:56;;;;;;;20.88;8.05;;;;;;;;;;4995058;28;20121;-80
2024/01/12 12:01:24;;;;;;;11.52;5.82;;;;;;;;;;4996066;28;20523;-81
2024/01/12 12:03:55;;;;;;;13.90;6.28;;;;;;;;;;4975599;28;20042;-81
2024/01/12 12:06:21;;;;;;;16.52;7.95;;;;;;;;;;4994577;28;20034;-82
2024/01/12 12:08:49;;;;;;;16.02;7.45;;;;;;;;;;4993931;28;20030;-81
2024/01/12 12:11:15;;;;;;;9.63;6.20;;;;;;;;;;4977385;28;20076;-80
2024/01/12 12:13:42;;;;;;;17.70;6.82;;;;;;;;;;4995480;28;20038;-80
2024/01/12 12:16:08;;;;;;;8.88;4.43;;;;;;;;;;4994741;28;20041;-81
2024/01/12 12:18:36;;;;;;;13.00;5.80;;;;;;;;;;4994916;28;20030;-80
2024/01/12 12:21:03;;;;;;;8.30;4.68;;;;;;;;;;4977842;28;20109;-79
2024/01/12 12:23:32;;;;;;;8.75;4.32;;;;;;;;;;4994827;28;20068;-81
2024/01/12 12:26:00;;;;;;;11.23;5.43;;;;;;;;;;4994580;28;20034;-81
2024/01/12 12:28:29;;;;;;;8.77;4.88;;;;;;;;;;4995655;28;20423;-81
2024/01/12 12:30:55;;;;;;;7.45;4.28;;;;;;;;;;4995285;28;20048;-82
2024/01/12 12:33:25;;;;;;;8.45;5.28;;;;;;;;;;4994979;28;20042;-82
2024/01/12 12:36:08;;;;;;;10.90;5.88;;;;;;;;;;4978154;28;20093;-82
2024/01/12 12:38:37;;;;;;;7.65;4.22;;;;;;;;;;4994885;28;20026;-82
2024/01/12 12:41:08;;;;;;;7.85;3.65;;;;;;;;;;4993934;28;20122;-81
2024/01/12 12:43:40;;;;;;;14.27;6.63;;;;;;;;;;4977054;28;20440;-82
2024/01/12 12:46:07;;;;;;;7.40;3.63;;;;;;;;;;4976329;28;20034;-81
2024/01/12 12:48:40;;;;;;;6.13;3.90;;;;;;;;;;4994387;28;20041;-81
2024/01/12 12:51:07;;;;;;;8.38;3.63;;;;;;;;;;4994760;28;20511;-81
2024/01/12 12:53:35;;;;;;;7.60;3.55;;;;;;;;;;4976909;28;20495;-81
2024/01/12 12:56:03;;;;;;;5.55;2.92;;;;;;;;;;4993906;28;20026;-79
2024/01/12 12:58:31;;;;;;;6.55;3.83;;;;;;;;;;4976734;28;20116;-80
2024/01/12 13:00:58;;;;;;;6.75;3.70;;;;;;;;;;4976902;28;20030;-80
2024/01/12 13:03:24;;;;;;;7.93;3.50;;;;;;;;;;5008445;28;20502;-80
2024/01/12 13:05:59;;;;;;;5.63;3.15;;;;;;;;;;4962622;28;20062;-81
2024/01/12 13:08:25;;;;;;;10.18;3.80;;;;;;;;;;4996610;28;20082;-80
2024/01/12 13:10:53;;;;;;;7.68;3.35;;;;;;;;;;4995640;28;20042;-82
2024/01/12 13:13:20;;;;;;;5.20;3.30;;;;;;;;;;4995952;28;20117;-81
2024/01/12 13:15:50;;;;;;;8.73;3.78;;;;;;;;;;4978567;28;20023;-79
2024/01/12 13:18:17;;;;;;;8.75;3.22;;;;;;;;;;4997083;28;20066;-81
2024/01/12 13:20:48;;;;;;;7.05;3.17;;;;;;;;;;4962292;28;20026;-79
2024/01/12 13:23:17;;;;;;;7.07;3.60;;;;;;;;;;4996103;28;20431;-81
2024/01/12 13:25:45;;;;;;;7.35;3.05;;;;;;;;;;4977156;28;20035;-78
2024/01/12 13:28:17;;;;;;;7.38;2.88;;;;;;;;;;4993019;28;20396;-81
2024/01/12 13:30:43;;;;;;;6.20;2.97;;;;;;;;;;4993500;28;20038;-79
2024/01/12 13:33:09;;;;;;;6.90;2.88;;;;;;;;;;4994894;28;20034;-79
2024/01/12 13:35:35;;;;;;;6.80;3.85;;;;;;;;;;4975813;28;20046;-80
2024/01/12 13:38:04;;;;;;;10.73;4.10;;;;;;;;;;4975813;28;20062;-80
2024/01/12 13:40:31;;;;;;;5.20;2.88;;;;;;;;;;4991316;28;20030;-78
2024/01/12 13:42:57;;;;;;;6.82;3.65;;;;;;;;;;4993340;28;20491;-78
2024/01/12 13:45:26;;;;;;;7.63;3.67;;;;;;;;;;4992553;28;20040;-78
2024/01/12 13:47:52;;;;;;;11.23;2.75;;;;;;;;;;4994394;28;20117;-77
2024/01/12 13:50:19;;;;;;;11.20;4.13;;;;;;;;;;4959392;28;20069;-79
2024/01/12 13:52:45;;;;;;;8.10;3.72;;;;;;;;;;4975385;28;20040;-78
2024/01/12 13:55:11;;;;;;;8.00;3.08;;;;;;;;;;4992498;28;20030;-77
2024/01/12 13:57:37;;;;;;;8.25;3.05;;;;;;;;;;4975632;28;20042;-77
2024/01/12 14:00:12;;;;;;;6.28;3.28;;;;;;;;;;4993019;28;20064;-78
2024/01/12 14:02:39;;;;;;;9.77;3.25;;;;;;;;;;4993546;28;20126;-78
2024/01/12 14:05:06;;;;;;;9.07;2.92;;;;;;;;;;4992113;28;20054;-81
2024/01/12 14:07:34;;;;;;;7.72;3.33;;;;;;;;;;4959605;28;20022;-79
2024/01/12 14:10:03;;;;;;;8.82;3.15;;;;;;;;;;4992557;28;20451;-78
2024/01/12 14:12:50;;;;;;;12.05;5.25;;;;;;;;;;4975450;28;20062;-78
2024/01/12 14:15:18;;;;;;;9.30;3.65;;;;;;;;;;4990383;28;20054;-80
2024/01/12 14:17:44;;;;;;;8.85;3.95;;;;;;;;;;4991806;28;20030;-79
2024/01/12 14:20:12;;;;;;;9.10;4.43;;;;;;;;;;4992413;28;20038;-78
2024/01/12 14:22:39;;;;;;;13.48;4.70;;;;;;;;;;4992103;28;20403;-78
2024/01/12 14:25:06;;;;;;;13.18;4.43;;;;;;;;;;4974454;28;20147;-78
2024/01/12 14:27:36;;;;;;;11.80;5.32;;;;;;;;;;4974506;28;20121;-79
2024/01/12 14:30:02;;;;;;;10.25;5.10;;;;;;;;;;4974755;28;20081;-76
2024/01/12 14:32:32;;;;;;;6.50;3.97;;;;;;;;;;4973409;28;20030;-76
2024/01/12 14:34:59;;;;;;;11.52;4.55;;;;;;;;;;4992107;28;20373;-75
2024/01/12 14:37:25;;;;;;;6.43;4.15;;;;;;;;;;5006701;28;20109;-76
2024/01/12 14:39:51;;;;;;;6.60;3.35;;;;;;;;;;4991544;28;20053;-75
2024/01/12 14:42:18;;;;;;;9.52;4.57;;;;;;;;;;4991549;28;20034;-76
2024/01/12 14:44:45;;;;;;;6.88;2.80;;;;;;;;;;4983391;28;20084;-78
2024/01/12 14:47:13;;;;;;;5.60;2.70;;;;;;;;;;4991046;28;20130;-76
2024/01/12 14:49:40;;;;;;;7.10;2.63;;;;;;;;;;4958078;28;20046;-76
2024/01/12 14:52:08;;;;;;;4.30;2.17;;;;;;;;;;4991435;28;20126;-75
2024/01/12 14:54:34;;;;;;;5.97;3.13;;;;;;;;;;4973819;28;20470;-75
2024/01/12 14:57:00;;;;;;;21.45;2.90;;;;;;;;;;4990910;28;20054;-72
2024/01/12 14:59:26;;;;;;;7.50;2.78;;;;;;;;;;4991483;28;20050;-72
2024/01/12 15:01:52;;;;;;;9.07;3.45;;;;;;;;;;4989981;28;20038;-71
2024/01/12 15:04:17;;;;;;;7.05;3.30;;;;;;;;;;4973042;28;20384;-71
2024/01/12 15:07:33;;;;;;;9.30;3.50;;;;;;;;;;4991296;28;20412;-74
2024/01/12 15:10:12;;;;;;;10.90;3.92;;;;;;;;;;4979231;28;20034;-75
2024/01/12 15:12:50;;;;;;;8.23;3.53;;;;;;;;;;4991479;28;20172;-74
2024/01/12 15:15:21;;;;;;;;;;;;;;;;;;4991981;28;20034;-75
2024/01/12 15:17:59;;;;;;;7.90;3.90;;;;;;;;;;4975240;28;19914;-75
2024/01/12 15:21:07;;;;;;;8.20;4.30;;;;;;;;;;4918037;29;20036;-75
2024/01/12 15:24:55;;;;;;;9.65;3.78;;;;;;;;;;4950899;28;20042;-75
2024/01/12 15:27:58;;;;;;;11.60;4.43;;;;;;;;;;4976474;28;20039;-73
2024/01/12 15:31:16;;;;;;;14.00;5.43;;;;;;;;;;4992200;28;20507;-75
2024/01/12 15:37:32;;;;;;;12.32;4.85;;;;;;;;;;4985517;28;20038;-74